sensor_id;sensor_type;location;lat;lon;timestamp;P1;durP1;ratioP1;P2;durP2;ratioP2
26965;SDS011;14522;52.068;4.414;2023-04-03T00:00:14;7.65;;;0.80;;
26965;SDS011;14522;52.068;4.414;2023-04-03T00:02:40;0.50;;;0.43;;
26965;SDS011;14522;52.068;4.414;2023-04-03T00:05:07;3.38;;;0.70;;
26965;SDS011;14522;52.068;4.414;2023-04-03T00:07:34;3.40;;;0.73;;
26965;SDS011;14522;52.068;4.414;2023-04-03T00:10:00;3.00;;;0.63;;
26965;SDS011;14522;52.068;4.414;2023-04-03T00:12:27;1.42;;;0.68;;
26965;SDS011;14522;52.068;4.414;2023-04-03T00:14:53;1.02;;;0.68;;
26965;SDS011;14522;52.068;4.414;2023-04-03T00:17:19;2.30;;;0.80;;
26965;SDS011;14522;52.068;4.414;2023-04-03T00:19:46;1.60;;;0.60;;
26965;SDS011;14522;52.068;4.414;2023-04-03T00:22:12;1.13;;;0.63;;
26965;SDS011;14522;52.068;4.414;2023-04-03T00:24:39;1.40;;;0.68;;
26965;SDS011;14522;52.068;4.414;2023-04-03T00:27:05;1.65;;;0.88;;
26965;SDS011;14522;52.068;4.414;2023-04-03T00:29:31;2.10;;;0.65;;
26965;SDS011;14522;52.068;4.414;2023-04-03T00:31:58;1.40;;;0.57;;
26965;SDS011;14522;52.068;4.414;2023-04-03T00:34:24;2.35;;;0.93;;
26965;SDS011;14522;52.068;4.414;2023-04-03T00:36:51;1.70;;;0.70;;
26965;SDS011;14522;52.068;4.414;2023-04-03T00:39:17;2.05;;;0.73;;
26965;SDS011;14522;52.068;4.414;2023-04-03T00:41:44;2.35;;;0.80;;
26965;SDS011;14522;52.068;4.414;2023-04-03T00:44:18;1.42;;;0.70;;
26965;SDS011;14522;52.068;4.414;2023-04-03T00:46:45;0.95;;;0.60;;
26965;SDS011;14522;52.068;4.414;2023-04-03T00:49:11;1.52;;;0.68;;
26965;SDS011;14522;52.068;4.414;2023-04-03T00:51:38;4.10;;;0.88;;
26965;SDS011;14522;52.068;4.414;2023-04-03T00:54:05;4.28;;;0.65;;
26965;SDS011;14522;52.068;4.414;2023-04-03T00:56:32;1.85;;;0.70;;
26965;SDS011;14522;52.068;4.414;2023-04-03T00:59:10;2.63;;;0.60;;
26965;SDS011;14522;52.068;4.414;2023-04-03T01:01:37;0.63;;;0.40;;
26965;SDS011;14522;52.068;4.414;2023-04-03T01:04:04;2.60;;;0.88;;
26965;SDS011;14522;52.068;4.414;2023-04-03T01:06:34;0.98;;;0.52;;
26965;SDS011;14522;52.068;4.414;2023-04-03T01:09:01;1.88;;;1.02;;
26965;SDS011;14522;52.068;4.414;2023-04-03T01:11:27;2.97;;;0.90;;
26965;SDS011;14522;52.068;4.414;2023-04-03T01:13:54;0.73;;;0.50;;
26965;SDS011;14522;52.068;4.414;2023-04-03T01:16:20;1.90;;;0.60;;
26965;SDS011;14522;52.068;4.414;2023-04-03T01:18:47;2.72;;;0.70;;
26965;SDS011;14522;52.068;4.414;2023-04-03T01:26:25;1.73;;;0.80;;
26965;SDS011;14522;52.068;4.414;2023-04-03T01:28:53;1.00;;;0.40;;
26965;SDS011;14522;52.068;4.414;2023-04-03T01:33:51;1.60;;;0.77;;
26965;SDS011;14522;52.068;4.414;2023-04-03T01:36:25;1.52;;;0.90;;
26965;SDS011;14522;52.068;4.414;2023-04-03T01:38:52;0.98;;;0.50;;
26965;SDS011;14522;52.068;4.414;2023-04-03T01:41:19;1.20;;;0.57;;
26965;SDS011;14522;52.068;4.414;2023-04-03T01:43:47;2.22;;;0.82;;
26965;SDS011;14522;52.068;4.414;2023-04-03T01:46:14;2.50;;;0.65;;
26965;SDS011;14522;52.068;4.414;2023-04-03T01:48:41;2.40;;;0.80;;
26965;SDS011;14522;52.068;4.414;2023-04-03T01:51:08;1.70;;;0.70;;
26965;SDS011;14522;52.068;4.414;2023-04-03T01:53:34;2.08;;;1.02;;
26965;SDS011;14522;52.068;4.414;2023-04-03T01:56:00;2.05;;;1.15;;
26965;SDS011;14522;52.068;4.414;2023-04-03T01:58:27;2.25;;;0.90;;
26965;SDS011;14522;52.068;4.414;2023-04-03T02:00:53;1.50;;;0.63;;
26965;SDS011;14522;52.068;4.414;2023-04-03T02:03:20;2.55;;;0.45;;
26965;SDS011;14522;52.068;4.414;2023-04-03T02:05:47;0.95;;;0.52;;
26965;SDS011;14522;52.068;4.414;2023-04-03T02:08:13;1.63;;;0.50;;
26965;SDS011;14522;52.068;4.414;2023-04-03T02:10:40;1.70;;;0.70;;
26965;SDS011;14522;52.068;4.414;2023-04-03T02:13:06;0.70;;;0.57;;
26965;SDS011;14522;52.068;4.414;2023-04-03T02:15:33;2.38;;;0.82;;
26965;SDS011;14522;52.068;4.414;2023-04-03T02:17:59;3.15;;;0.70;;
26965;SDS011;14522;52.068;4.414;2023-04-03T02:20:25;2.05;;;0.75;;
26965;SDS011;14522;52.068;4.414;2023-04-03T02:22:52;2.53;;;0.75;;
26965;SDS011;14522;52.068;4.414;2023-04-03T02:25:18;3.08;;;0.70;;
26965;SDS011;14522;52.068;4.414;2023-04-03T02:27:45;2.67;;;0.90;;
26965;SDS011;14522;52.068;4.414;2023-04-03T02:30:11;2.88;;;0.70;;
26965;SDS011;14522;52.068;4.414;2023-04-03T02:32:38;2.15;;;0.73;;
26965;SDS011;14522;52.068;4.414;2023-04-03T02:35:06;2.72;;;0.77;;
26965;SDS011;14522;52.068;4.414;2023-04-03T02:37:32;0.30;;;0.30;;
26965;SDS011;14522;52.068;4.414;2023-04-03T02:39:59;1.27;;;0.55;;
26965;SDS011;14522;52.068;4.414;2023-04-03T02:42:25;1.75;;;0.80;;
26965;SDS011;14522;52.068;4.414;2023-04-03T02:44:52;3.17;;;0.80;;
26965;SDS011;14522;52.068;4.414;2023-04-03T02:47:18;2.10;;;0.82;;
26965;SDS011;14522;52.068;4.414;2023-04-03T02:49:45;1.13;;;0.52;;
26965;SDS011;14522;52.068;4.414;2023-04-03T02:52:12;2.97;;;0.70;;
26965;SDS011;14522;52.068;4.414;2023-04-03T02:54:39;1.75;;;0.75;;
26965;SDS011;14522;52.068;4.414;2023-04-03T02:57:05;2.17;;;0.65;;
26965;SDS011;14522;52.068;4.414;2023-04-03T02:59:35;0.80;;;0.43;;
26965;SDS011;14522;52.068;4.414;2023-04-03T03:02:01;1.60;;;0.68;;
26965;SDS011;14522;52.068;4.414;2023-04-03T03:04:27;2.03;;;0.70;;
26965;SDS011;14522;52.068;4.414;2023-04-03T03:06:54;2.78;;;0.90;;
26965;SDS011;14522;52.068;4.414;2023-04-03T03:09:21;0.73;;;0.47;;
26965;SDS011;14522;52.068;4.414;2023-04-03T03:11:47;2.67;;;0.70;;
26965;SDS011;14522;52.068;4.414;2023-04-03T03:14:13;1.08;;;0.60;;
26965;SDS011;14522;52.068;4.414;2023-04-03T03:16:40;2.25;;;0.73;;
26965;SDS011;14522;52.068;4.414;2023-04-03T03:19:06;1.45;;;0.65;;
26965;SDS011;14522;52.068;4.414;2023-04-03T03:21:33;2.72;;;0.82;;
26965;SDS011;14522;52.068;4.414;2023-04-03T03:23:59;3.80;;;0.80;;
26965;SDS011;14522;52.068;4.414;2023-04-03T03:26:26;1.42;;;0.70;;
26965;SDS011;14522;52.068;4.414;2023-04-03T03:28:52;2.85;;;0.85;;
26965;SDS011;14522;52.068;4.414;2023-04-03T03:31:18;2.55;;;0.38;;
26965;SDS011;14522;52.068;4.414;2023-04-03T03:33:45;2.05;;;0.60;;
26965;SDS011;14522;52.068;4.414;2023-04-03T03:36:11;3.10;;;0.98;;
26965;SDS011;14522;52.068;4.414;2023-04-03T03:38:38;3.38;;;0.80;;
26965;SDS011;14522;52.068;4.414;2023-04-03T03:41:04;2.58;;;1.23;;
26965;SDS011;14522;52.068;4.414;2023-04-03T03:43:31;2.90;;;1.02;;
26965;SDS011;14522;52.068;4.414;2023-04-03T03:45:57;1.60;;;0.80;;
26965;SDS011;14522;52.068;4.414;2023-04-03T03:48:24;1.60;;;0.70;;
26965;SDS011;14522;52.068;4.414;2023-04-03T03:50:50;2.80;;;0.88;;
26965;SDS011;14522;52.068;4.414;2023-04-03T03:53:17;1.85;;;1.02;;
26965;SDS011;14522;52.068;4.414;2023-04-03T03:55:44;2.67;;;0.73;;
26965;SDS011;14522;52.068;4.414;2023-04-03T03:58:10;1.58;;;0.60;;
26965;SDS011;14522;52.068;4.414;2023-04-03T04:00:36;1.75;;;0.60;;
26965;SDS011;14522;52.068;4.414;2023-04-03T04:03:03;2.38;;;0.95;;
26965;SDS011;14522;52.068;4.414;2023-04-03T04:05:29;1.90;;;0.65;;
26965;SDS011;14522;52.068;4.414;2023-04-03T04:07:56;2.05;;;0.70;;
26965;SDS011;14522;52.068;4.414;2023-04-03T04:10:23;1.00;;;0.50;;
26965;SDS011;14522;52.068;4.414;2023-04-03T04:12:49;1.60;;;0.70;;
26965;SDS011;14522;52.068;4.414;2023-04-03T04:15:17;3.30;;;0.75;;
26965;SDS011;14522;52.068;4.414;2023-04-03T04:17:44;0.75;;;0.40;;
26965;SDS011;14522;52.068;4.414;2023-04-03T04:20:10;1.75;;;0.80;;
26965;SDS011;14522;52.068;4.414;2023-04-03T04:22:37;1.48;;;0.65;;
26965;SDS011;14522;52.068;4.414;2023-04-03T04:25:05;2.92;;;0.85;;
26965;SDS011;14522;52.068;4.414;2023-04-03T04:27:31;4.38;;;0.95;;
26965;SDS011;14522;52.068;4.414;2023-04-03T04:29:58;4.40;;;1.00;;
26965;SDS011;14522;52.068;4.414;2023-04-03T04:32:24;0.70;;;0.47;;
26965;SDS011;14522;52.068;4.414;2023-04-03T04:34:51;1.38;;;0.70;;
26965;SDS011;14522;52.068;4.414;2023-04-03T04:37:17;3.63;;;0.98;;
26965;SDS011;14522;52.068;4.414;2023-04-03T04:39:44;3.55;;;1.23;;
26965;SDS011;14522;52.068;4.414;2023-04-03T04:42:10;1.38;;;0.70;;
26965;SDS011;14522;52.068;4.414;2023-04-03T04:44:41;2.55;;;0.90;;
26965;SDS011;14522;52.068;4.414;2023-04-03T04:47:08;1.88;;;0.85;;
26965;SDS011;14522;52.068;4.414;2023-04-03T04:49:34;2.47;;;0.70;;
26965;SDS011;14522;52.068;4.414;2023-04-03T04:52:01;1.60;;;0.70;;
26965;SDS011;14522;52.068;4.414;2023-04-03T04:54:27;1.80;;;0.77;;
26965;SDS011;14522;52.068;4.414;2023-04-03T04:56:54;3.63;;;0.82;;
26965;SDS011;14522;52.068;4.414;2023-04-03T04:59:20;2.05;;;0.90;;
26965;SDS011;14522;52.068;4.414;2023-04-03T05:01:47;3.45;;;1.05;;
26965;SDS011;14522;52.068;4.414;2023-04-03T05:04:13;3.75;;;0.70;;
26965;SDS011;14522;52.068;4.414;2023-04-03T05:06:41;1.52;;;0.70;;
26965;SDS011;14522;52.068;4.414;2023-04-03T05:09:07;1.63;;;0.73;;
26965;SDS011;14522;52.068;4.414;2023-04-03T05:11:35;1.83;;;0.70;;
26965;SDS011;14522;52.068;4.414;2023-04-03T05:14:01;6.95;;;1.73;;
26965;SDS011;14522;52.068;4.414;2023-04-03T05:16:28;2.40;;;1.02;;
26965;SDS011;14522;52.068;4.414;2023-04-03T05:18:54;1.75;;;0.68;;
26965;SDS011;14522;52.068;4.414;2023-04-03T05:21:20;3.30;;;1.30;;
26965;SDS011;14522;52.068;4.414;2023-04-03T05:23:49;2.38;;;0.95;;
26965;SDS011;14522;52.068;4.414;2023-04-03T05:26:16;2.20;;;1.23;;
26965;SDS011;14522;52.068;4.414;2023-04-03T05:28:42;2.40;;;0.85;;
26965;SDS011;14522;52.068;4.414;2023-04-03T05:31:09;2.92;;;1.00;;
26965;SDS011;14522;52.068;4.414;2023-04-03T05:33:35;1.50;;;0.77;;
26965;SDS011;14522;52.068;4.414;2023-04-03T05:36:02;3.50;;;1.10;;
26965;SDS011;14522;52.068;4.414;2023-04-03T05:38:29;3.47;;;0.77;;
26965;SDS011;14522;52.068;4.414;2023-04-03T05:40:56;2.50;;;1.25;;
26965;SDS011;14522;52.068;4.414;2023-04-03T05:43:23;3.17;;;1.08;;
26965;SDS011;14522;52.068;4.414;2023-04-03T05:45:49;5.72;;;1.05;;
26965;SDS011;14522;52.068;4.414;2023-04-03T05:48:16;3.88;;;1.20;;
26965;SDS011;14522;52.068;4.414;2023-04-03T05:50:42;4.03;;;1.48;;
26965;SDS011;14522;52.068;4.414;2023-04-03T05:53:14;3.55;;;1.23;;
26965;SDS011;14522;52.068;4.414;2023-04-03T05:55:42;5.97;;;1.30;;
26965;SDS011;14522;52.068;4.414;2023-04-03T05:58:08;2.78;;;1.00;;
26965;SDS011;14522;52.068;4.414;2023-04-03T06:00:37;5.43;;;1.00;;
26965;SDS011;14522;52.068;4.414;2023-04-03T06:03:03;5.72;;;1.00;;
26965;SDS011;14522;52.068;4.414;2023-04-03T06:05:30;2.38;;;0.85;;
26965;SDS011;14522;52.068;4.414;2023-04-03T06:07:56;4.00;;;1.15;;
26965;SDS011;14522;52.068;4.414;2023-04-03T06:10:23;3.47;;;1.27;;
26965;SDS011;14522;52.068;4.414;2023-04-03T06:12:50;3.30;;;1.02;;
26965;SDS011;14522;52.068;4.414;2023-04-03T06:15:17;4.20;;;1.58;;
26965;SDS011;14522;52.068;4.414;2023-04-03T06:17:43;1.63;;;0.75;;
26965;SDS011;14522;52.068;4.414;2023-04-03T06:20:10;2.28;;;0.93;;
26965;SDS011;14522;52.068;4.414;2023-04-03T06:22:37;1.58;;;0.80;;
26965;SDS011;14522;52.068;4.414;2023-04-03T06:25:04;1.63;;;0.90;;
26965;SDS011;14522;52.068;4.414;2023-04-03T06:27:31;4.70;;;1.35;;
26965;SDS011;14522;52.068;4.414;2023-04-03T06:29:57;2.00;;;1.10;;
26965;SDS011;14522;52.068;4.414;2023-04-03T06:32:23;3.67;;;1.30;;
26965;SDS011;14522;52.068;4.414;2023-04-03T06:34:50;3.13;;;1.13;;
26965;SDS011;14522;52.068;4.414;2023-04-03T06:37:17;4.50;;;1.10;;
26965;SDS011;14522;52.068;4.414;2023-04-03T06:39:44;3.30;;;1.40;;
26965;SDS011;14522;52.068;4.414;2023-04-03T06:42:11;7.35;;;1.20;;
26965;SDS011;14522;52.068;4.414;2023-04-03T06:44:37;2.83;;;0.98;;
26965;SDS011;14522;52.068;4.414;2023-04-03T06:47:04;6.00;;;1.30;;
26965;SDS011;14522;52.068;4.414;2023-04-03T06:49:30;2.78;;;1.05;;
26965;SDS011;14522;52.068;4.414;2023-04-03T06:51:58;2.58;;;1.20;;
26965;SDS011;14522;52.068;4.414;2023-04-03T06:54:27;4.38;;;1.00;;
26965;SDS011;14522;52.068;4.414;2023-04-03T06:56:53;4.05;;;1.20;;
26965;SDS011;14522;52.068;4.414;2023-04-03T06:59:20;4.72;;;1.70;;
26965;SDS011;14522;52.068;4.414;2023-04-03T07:01:46;3.28;;;1.10;;
26965;SDS011;14522;52.068;4.414;2023-04-03T07:04:13;4.03;;;1.00;;
26965;SDS011;14522;52.068;4.414;2023-04-03T07:06:39;3.65;;;1.30;;
26965;SDS011;14522;52.068;4.414;2023-04-03T07:09:06;3.55;;;1.25;;
26965;SDS011;14522;52.068;4.414;2023-04-03T07:11:33;4.88;;;1.23;;
26965;SDS011;14522;52.068;4.414;2023-04-03T07:14:00;2.42;;;1.10;;
26965;SDS011;14522;52.068;4.414;2023-04-03T07:16:26;4.38;;;1.52;;
26965;SDS011;14522;52.068;4.414;2023-04-03T07:18:53;4.35;;;1.45;;
26965;SDS011;14522;52.068;4.414;2023-04-03T07:21:19;1.85;;;0.98;;
26965;SDS011;14522;52.068;4.414;2023-04-03T07:23:46;4.22;;;1.30;;
26965;SDS011;14522;52.068;4.414;2023-04-03T07:26:17;4.15;;;1.30;;
26965;SDS011;14522;52.068;4.414;2023-04-03T07:28:44;6.00;;;1.38;;
26965;SDS011;14522;52.068;4.414;2023-04-03T07:31:11;3.45;;;1.20;;
26965;SDS011;14522;52.068;4.414;2023-04-03T07:33:40;7.40;;;1.30;;
26965;SDS011;14522;52.068;4.414;2023-04-03T07:36:07;3.33;;;1.55;;
26965;SDS011;14522;52.068;4.414;2023-04-03T07:38:34;4.35;;;1.48;;
26965;SDS011;14522;52.068;4.414;2023-04-03T07:41:02;1.70;;;0.80;;
26965;SDS011;14522;52.068;4.414;2023-04-03T07:43:28;6.38;;;1.63;;
26965;SDS011;14522;52.068;4.414;2023-04-03T07:45:55;2.78;;;1.10;;
26965;SDS011;14522;52.068;4.414;2023-04-03T07:48:22;5.03;;;1.50;;
26965;SDS011;14522;52.068;4.414;2023-04-03T07:50:49;4.50;;;1.30;;
26965;SDS011;14522;52.068;4.414;2023-04-03T07:53:15;5.80;;;1.30;;
26965;SDS011;14522;52.068;4.414;2023-04-03T07:55:42;6.63;;;2.00;;
26965;SDS011;14522;52.068;4.414;2023-04-03T07:58:10;2.47;;;1.08;;
26965;SDS011;14522;52.068;4.414;2023-04-03T08:00:37;9.20;;;1.50;;
26965;SDS011;14522;52.068;4.414;2023-04-03T08:03:04;6.32;;;1.40;;
26965;SDS011;14522;52.068;4.414;2023-04-03T08:05:36;4.47;;;1.33;;
26965;SDS011;14522;52.068;4.414;2023-04-03T08:08:03;5.18;;;1.40;;
26965;SDS011;14522;52.068;4.414;2023-04-03T08:10:30;3.15;;;1.10;;
26965;SDS011;14522;52.068;4.414;2023-04-03T08:12:57;4.30;;;1.10;;
26965;SDS011;14522;52.068;4.414;2023-04-03T08:15:23;4.47;;;1.35;;
26965;SDS011;14522;52.068;4.414;2023-04-03T08:17:50;5.18;;;1.38;;
26965;SDS011;14522;52.068;4.414;2023-04-03T08:20:16;4.88;;;1.40;;
26965;SDS011;14522;52.068;4.414;2023-04-03T08:22:43;3.67;;;1.05;;
26965;SDS011;14522;52.068;4.414;2023-04-03T08:25:09;5.93;;;1.63;;
26965;SDS011;14522;52.068;4.414;2023-04-03T08:27:36;5.38;;;1.45;;
26965;SDS011;14522;52.068;4.414;2023-04-03T08:30:03;3.58;;;1.10;;
26965;SDS011;14522;52.068;4.414;2023-04-03T08:32:30;4.18;;;1.35;;
26965;SDS011;14522;52.068;4.414;2023-04-03T08:34:56;4.72;;;1.65;;
26965;SDS011;14522;52.068;4.414;2023-04-03T08:37:23;5.65;;;1.30;;
26965;SDS011;14522;52.068;4.414;2023-04-03T08:39:49;7.60;;;1.50;;
26965;SDS011;14522;52.068;4.414;2023-04-03T08:42:21;6.03;;;1.58;;
26965;SDS011;14522;52.068;4.414;2023-04-03T08:44:55;4.72;;;1.45;;
26965;SDS011;14522;52.068;4.414;2023-04-03T08:50:05;5.38;;;1.38;;
26965;SDS011;14522;52.068;4.414;2023-04-03T08:52:40;5.55;;;1.55;;
26965;SDS011;14522;52.068;4.414;2023-04-03T08:57:58;4.85;;;1.40;;
26965;SDS011;14522;52.068;4.414;2023-04-03T09:00:26;5.22;;;1.88;;
26965;SDS011;14522;52.068;4.414;2023-04-03T09:02:55;3.78;;;1.48;;
26965;SDS011;14522;52.068;4.414;2023-04-03T09:10:24;5.47;;;1.63;;
26965;SDS011;14522;52.068;4.414;2023-04-03T09:12:57;5.35;;;1.25;;
26965;SDS011;14522;52.068;4.414;2023-04-03T09:15:25;2.65;;;0.95;;
26965;SDS011;14522;52.068;4.414;2023-04-03T09:25:46;6.13;;;1.23;;
26965;SDS011;14522;52.068;4.414;2023-04-03T09:28:14;2.33;;;0.80;;
26965;SDS011;14522;52.068;4.414;2023-04-03T09:30:40;2.70;;;1.17;;
26965;SDS011;14522;52.068;4.414;2023-04-03T09:33:07;4.43;;;1.10;;
26965;SDS011;14522;52.068;4.414;2023-04-03T09:35:35;1.33;;;0.80;;
26965;SDS011;14522;52.068;4.414;2023-04-03T09:45:42;0.60;;;0.17;;
26965;SDS011;14522;52.068;4.414;2023-04-03T09:56:18;4.07;;;0.60;;
26965;SDS011;14522;52.068;4.414;2023-04-03T09:59:06;2.30;;;0.52;;
26965;SDS011;14522;52.068;4.414;2023-04-03T10:01:35;0.95;;;0.45;;
26965;SDS011;14522;52.068;4.414;2023-04-03T10:06:39;1.42;;;0.30;;
26965;SDS011;14522;52.068;4.414;2023-04-03T10:09:29;1.17;;;0.50;;
26965;SDS011;14522;52.068;4.414;2023-04-03T10:12:05;1.48;;;0.40;;
26965;SDS011;14522;52.068;4.414;2023-04-03T10:14:33;0.30;;;0.20;;
26965;SDS011;14522;52.068;4.414;2023-04-03T10:24:41;2.55;;;0.40;;
26965;SDS011;14522;52.068;4.414;2023-04-03T10:27:12;2.53;;;0.77;;
26965;SDS011;14522;52.068;4.414;2023-04-03T10:29:55;0.93;;;0.43;;
26965;SDS011;14522;52.068;4.414;2023-04-03T10:34:55;0.70;;;0.40;;
26965;SDS011;14522;52.068;4.414;2023-04-03T10:37:33;2.55;;;0.50;;
26965;SDS011;14522;52.068;4.414;2023-04-03T10:40:21;1.08;;;0.63;;
26965;SDS011;14522;52.068;4.414;2023-04-03T10:45:26;0.98;;;0.50;;
26965;SDS011;14522;52.068;4.414;2023-04-03T10:48:12;1.95;;;0.43;;
26965;SDS011;14522;52.068;4.414;2023-04-03T10:56:04;2.42;;;0.68;;
26965;SDS011;14522;52.068;4.414;2023-04-03T10:58:32;1.02;;;0.38;;
26965;SDS011;14522;52.068;4.414;2023-04-03T11:01:02;2.55;;;0.60;;
26965;SDS011;14522;52.068;4.414;2023-04-03T11:03:30;2.08;;;0.43;;
26965;SDS011;14522;52.068;4.414;2023-04-03T11:05:59;0.47;;;0.30;;
26965;SDS011;14522;52.068;4.414;2023-04-03T11:08:30;2.80;;;0.80;;
26965;SDS011;14522;52.068;4.414;2023-04-03T11:11:00;2.13;;;0.50;;
26965;SDS011;14522;52.068;4.414;2023-04-03T11:16:15;1.33;;;0.43;;
26965;SDS011;14522;52.068;4.414;2023-04-03T11:18:52;0.80;;;0.30;;
26965;SDS011;14522;52.068;4.414;2023-04-03T11:21:32;3.25;;;0.43;;
26965;SDS011;14522;52.068;4.414;2023-04-03T11:24:01;1.67;;;0.57;;
26965;SDS011;14522;52.068;4.414;2023-04-03T11:26:30;4.15;;;0.60;;
26965;SDS011;14522;52.068;4.414;2023-04-03T11:29:00;1.67;;;0.68;;
26965;SDS011;14522;52.068;4.414;2023-04-03T11:36:30;1.48;;;0.35;;
26965;SDS011;14522;52.068;4.414;2023-04-03T11:39:07;1.23;;;0.40;;
26965;SDS011;14522;52.068;4.414;2023-04-03T11:41:36;1.73;;;0.45;;
26965;SDS011;14522;52.068;4.414;2023-04-03T11:44:33;2.50;;;0.50;;
26965;SDS011;14522;52.068;4.414;2023-04-03T11:46:53;2.08;;;0.50;;
26965;SDS011;14522;52.068;4.414;2023-04-03T11:52:10;2.05;;;0.65;;
26965;SDS011;14522;52.068;4.414;2023-04-03T11:59:56;1.92;;;0.35;;
26965;SDS011;14522;52.068;4.414;2023-04-03T12:02:35;0.60;;;0.20;;
26965;SDS011;14522;52.068;4.414;2023-04-03T12:05:29;0.98;;;0.30;;
26965;SDS011;14522;52.068;4.414;2023-04-03T12:16:19;3.90;;;0.38;;
26965;SDS011;14522;52.068;4.414;2023-04-03T12:21:16;0.80;;;0.35;;
26965;SDS011;14522;52.068;4.414;2023-04-03T12:29:21;2.55;;;0.50;;
26965;SDS011;14522;52.068;4.414;2023-04-03T12:32:07;1.77;;;0.20;;
26965;SDS011;14522;52.068;4.414;2023-04-03T12:45:20;0.40;;;0.17;;
26965;SDS011;14522;52.068;4.414;2023-04-03T12:47:52;0.40;;;0.20;;
26965;SDS011;14522;52.068;4.414;2023-04-03T12:50:29;0.68;;;0.40;;
26965;SDS011;14522;52.068;4.414;2023-04-03T12:52:57;0.63;;;0.30;;
26965;SDS011;14522;52.068;4.414;2023-04-03T12:55:25;1.42;;;0.28;;
26965;SDS011;14522;52.068;4.414;2023-04-03T12:57:52;1.15;;;0.50;;
26965;SDS011;14522;52.068;4.414;2023-04-03T13:00:29;0.45;;;0.30;;
26965;SDS011;14522;52.068;4.414;2023-04-03T13:02:56;1.00;;;0.40;;
26965;SDS011;14522;52.068;4.414;2023-04-03T13:05:23;1.90;;;0.30;;
26965;SDS011;14522;52.068;4.414;2023-04-03T13:07:52;0.90;;;0.57;;
26965;SDS011;14522;52.068;4.414;2023-04-03T13:10:20;2.22;;;0.57;;
26965;SDS011;14522;52.068;4.414;2023-04-03T13:15:21;0.65;;;0.22;;
26965;SDS011;14522;52.068;4.414;2023-04-03T13:17:49;1.63;;;0.38;;
26965;SDS011;14522;52.068;4.414;2023-04-03T13:20:28;0.95;;;0.57;;
26965;SDS011;14522;52.068;4.414;2023-04-03T13:22:56;2.30;;;0.82;;
26965;SDS011;14522;52.068;4.414;2023-04-03T13:25:25;1.92;;;0.50;;
26965;SDS011;14522;52.068;4.414;2023-04-03T13:27:53;1.45;;;0.60;;
26965;SDS011;14522;52.068;4.414;2023-04-03T13:30:38;2.92;;;0.63;;
26965;SDS011;14522;52.068;4.414;2023-04-03T13:33:06;1.40;;;0.50;;
26965;SDS011;14522;52.068;4.414;2023-04-03T13:35:37;1.38;;;0.43;;
26965;SDS011;14522;52.068;4.414;2023-04-03T13:38:26;2.20;;;0.57;;
26965;SDS011;14522;52.068;4.414;2023-04-03T13:40:52;2.13;;;0.52;;
26965;SDS011;14522;52.068;4.414;2023-04-03T13:43:20;2.47;;;0.50;;
26965;SDS011;14522;52.068;4.414;2023-04-03T13:45:56;0.70;;;0.30;;
26965;SDS011;14522;52.068;4.414;2023-04-03T13:48:23;1.77;;;0.47;;
26965;SDS011;14522;52.068;4.414;2023-04-03T13:50:57;1.05;;;0.40;;
26965;SDS011;14522;52.068;4.414;2023-04-03T13:53:25;1.73;;;0.60;;
26965;SDS011;14522;52.068;4.414;2023-04-03T13:55:54;2.30;;;0.40;;
26965;SDS011;14522;52.068;4.414;2023-04-03T13:58:26;0.77;;;0.52;;
26965;SDS011;14522;52.068;4.414;2023-04-03T14:01:00;1.58;;;0.40;;
26965;SDS011;14522;52.068;4.414;2023-04-03T14:03:42;2.88;;;0.90;;
26965;SDS011;14522;52.068;4.414;2023-04-03T14:06:10;3.25;;;0.65;;
26965;SDS011;14522;52.068;4.414;2023-04-03T14:08:36;3.28;;;0.63;;
26965;SDS011;14522;52.068;4.414;2023-04-03T14:11:19;2.75;;;0.60;;
26965;SDS011;14522;52.068;4.414;2023-04-03T14:13:47;1.70;;;0.43;;
26965;SDS011;14522;52.068;4.414;2023-04-03T14:16:15;1.45;;;0.52;;
26965;SDS011;14522;52.068;4.414;2023-04-03T14:18:46;1.88;;;0.60;;
26965;SDS011;14522;52.068;4.414;2023-04-03T14:21:13;0.90;;;0.50;;
26965;SDS011;14522;52.068;4.414;2023-04-03T14:23:40;0.85;;;0.38;;
26965;SDS011;14522;52.068;4.414;2023-04-03T14:26:09;2.92;;;0.70;;
26965;SDS011;14522;52.068;4.414;2023-04-03T14:28:36;2.90;;;0.77;;
26965;SDS011;14522;52.068;4.414;2023-04-03T14:31:03;2.17;;;0.50;;
26965;SDS011;14522;52.068;4.414;2023-04-03T14:33:29;0.70;;;0.40;;
26965;SDS011;14522;52.068;4.414;2023-04-03T14:36:01;3.22;;;0.73;;
26965;SDS011;14522;52.068;4.414;2023-04-03T14:38:29;2.95;;;0.70;;
26965;SDS011;14522;52.068;4.414;2023-04-03T14:40:56;1.42;;;0.60;;
26965;SDS011;14522;52.068;4.414;2023-04-03T14:43:35;1.38;;;0.40;;
26965;SDS011;14522;52.068;4.414;2023-04-03T14:46:01;1.33;;;0.60;;
26965;SDS011;14522;52.068;4.414;2023-04-03T14:48:28;3.67;;;1.10;;
26965;SDS011;14522;52.068;4.414;2023-04-03T14:50:56;1.98;;;0.63;;
26965;SDS011;14522;52.068;4.414;2023-04-03T14:53:31;0.73;;;0.55;;
26965;SDS011;14522;52.068;4.414;2023-04-03T14:56:11;1.83;;;0.40;;
26965;SDS011;14522;52.068;4.414;2023-04-03T14:58:38;5.13;;;0.90;;
26965;SDS011;14522;52.068;4.414;2023-04-03T15:01:04;1.55;;;0.50;;
26965;SDS011;14522;52.068;4.414;2023-04-03T15:03:31;2.53;;;0.47;;
26965;SDS011;14522;52.068;4.414;2023-04-03T15:05:58;2.58;;;0.70;;
26965;SDS011;14522;52.068;4.414;2023-04-03T15:08:25;6.35;;;0.55;;
26965;SDS011;14522;52.068;4.414;2023-04-03T15:10:53;0.73;;;0.38;;
26965;SDS011;14522;52.068;4.414;2023-04-03T15:13:22;1.42;;;0.80;;
26965;SDS011;14522;52.068;4.414;2023-04-03T15:15:49;2.70;;;0.80;;
26965;SDS011;14522;52.068;4.414;2023-04-03T15:18:23;2.83;;;0.68;;
26965;SDS011;14522;52.068;4.414;2023-04-03T15:20:54;2.25;;;0.70;;
26965;SDS011;14522;52.068;4.414;2023-04-03T15:23:21;2.28;;;0.70;;
26965;SDS011;14522;52.068;4.414;2023-04-03T15:25:52;1.30;;;0.60;;
26965;SDS011;14522;52.068;4.414;2023-04-03T15:28:38;4.25;;;0.70;;
26965;SDS011;14522;52.068;4.414;2023-04-03T15:31:05;2.92;;;0.77;;
26965;SDS011;14522;52.068;4.414;2023-04-03T15:33:32;7.82;;;1.05;;
26965;SDS011;14522;52.068;4.414;2023-04-03T15:35:59;2.00;;;0.70;;
26965;SDS011;14522;52.068;4.414;2023-04-03T15:38:33;5.97;;;0.82;;
26965;SDS011;14522;52.068;4.414;2023-04-03T15:41:00;5.78;;;0.60;;
26965;SDS011;14522;52.068;4.414;2023-04-03T15:43:26;3.78;;;0.93;;
26965;SDS011;14522;52.068;4.414;2023-04-03T15:45:54;1.52;;;0.52;;
26965;SDS011;14522;52.068;4.414;2023-04-03T15:48:22;1.58;;;0.60;;
26965;SDS011;14522;52.068;4.414;2023-04-03T15:50:49;4.50;;;0.77;;
26965;SDS011;14522;52.068;4.414;2023-04-03T15:53:15;1.15;;;0.63;;
26965;SDS011;14522;52.068;4.414;2023-04-03T15:55:42;3.00;;;0.70;;
26965;SDS011;14522;52.068;4.414;2023-04-03T15:58:08;2.05;;;0.80;;
26965;SDS011;14522;52.068;4.414;2023-04-03T16:00:37;4.25;;;1.10;;
26965;SDS011;14522;52.068;4.414;2023-04-03T16:03:06;4.60;;;0.68;;
26965;SDS011;14522;52.068;4.414;2023-04-03T16:05:35;3.05;;;0.70;;
26965;SDS011;14522;52.068;4.414;2023-04-03T16:08:01;1.63;;;0.88;;
26965;SDS011;14522;52.068;4.414;2023-04-03T16:10:28;2.45;;;0.70;;
26965;SDS011;14522;52.068;4.414;2023-04-03T16:12:55;4.10;;;0.93;;
26965;SDS011;14522;52.068;4.414;2023-04-03T16:15:22;3.72;;;0.85;;
26965;SDS011;14522;52.068;4.414;2023-04-03T16:17:48;4.05;;;0.85;;
26965;SDS011;14522;52.068;4.414;2023-04-03T16:20:15;3.03;;;0.47;;
26965;SDS011;14522;52.068;4.414;2023-04-03T16:22:42;5.25;;;0.95;;
26965;SDS011;14522;52.068;4.414;2023-04-03T16:25:09;1.48;;;0.60;;
26965;SDS011;14522;52.068;4.414;2023-04-03T16:27:36;4.03;;;0.88;;
26965;SDS011;14522;52.068;4.414;2023-04-03T16:30:02;2.40;;;0.63;;
26965;SDS011;14522;52.068;4.414;2023-04-03T16:32:29;4.03;;;0.70;;
26965;SDS011;14522;52.068;4.414;2023-04-03T16:34:57;3.22;;;1.00;;
26965;SDS011;14522;52.068;4.414;2023-04-03T16:37:23;1.88;;;0.60;;
26965;SDS011;14522;52.068;4.414;2023-04-03T16:39:53;1.77;;;0.80;;
26965;SDS011;14522;52.068;4.414;2023-04-03T16:42:19;3.28;;;0.80;;